sensor_id;sensor_type;location;lat;lon;timestamp;P1;durP1;ratioP1;P2;durP2;ratioP2
81936;SDS011;71432;56.558;9.036;2023-11-21T00:01:44;1.30;;;0.57;;
81936;SDS011;71432;56.558;9.036;2023-11-21T00:04:09;1.97;;;0.90;;
81936;SDS011;71432;56.558;9.036;2023-11-21T00:06:34;2.70;;;1.00;;
81936;SDS011;71432;56.558;9.036;2023-11-21T00:09:00;2.50;;;0.98;;
81936;SDS011;71432;56.558;9.036;2023-11-21T00:11:25;1.77;;;0.95;;
81936;SDS011;71432;56.558;9.036;2023-11-21T00:13:51;1.17;;;0.80;;
81936;SDS011;71432;56.558;9.036;2023-11-21T00:16:16;1.15;;;0.77;;
81936;SDS011;71432;56.558;9.036;2023-11-21T00:18:42;1.63;;;0.93;;
81936;SDS011;71432;56.558;9.036;2023-11-21T00:21:07;0.88;;;0.57;;
81936;SDS011;71432;56.558;9.036;2023-11-21T00:23:34;1.35;;;0.70;;
81936;SDS011;71432;56.558;9.036;2023-11-21T00:25:59;1.48;;;0.85;;
81936;SDS011;71432;56.558;9.036;2023-11-21T00:28:25;1.83;;;1.15;;
81936;SDS011;71432;56.558;9.036;2023-11-21T00:33:16;1.90;;;0.73;;
81936;SDS011;71432;56.558;9.036;2023-11-21T00:35:41;1.23;;;0.60;;
81936;SDS011;71432;56.558;9.036;2023-11-21T00:38:07;1.20;;;0.75;;
81936;SDS011;71432;56.558;9.036;2023-11-21T00:42:58;0.97;;;0.70;;
81936;SDS011;71432;56.558;9.036;2023-11-21T00:45:24;1.83;;;0.85;;
81936;SDS011;71432;56.558;9.036;2023-11-21T00:47:49;1.40;;;0.82;;
81936;SDS011;71432;56.558;9.036;2023-11-21T00:50:15;1.40;;;0.65;;
81936;SDS011;71432;56.558;9.036;2023-11-21T00:52:40;2.13;;;0.60;;
81936;SDS011;71432;56.558;9.036;2023-11-21T00:55:06;1.42;;;0.90;;
81936;SDS011;71432;56.558;9.036;2023-11-21T00:57:33;1.85;;;0.80;;
81936;SDS011;71432;56.558;9.036;2023-11-21T00:59:59;1.05;;;0.73;;
81936;SDS011;71432;56.558;9.036;2023-11-21T01:02:25;3.15;;;0.95;;
81936;SDS011;71432;56.558;9.036;2023-11-21T01:04:50;2.05;;;1.02;;
81936;SDS011;71432;56.558;9.036;2023-11-21T01:07:16;1.80;;;0.75;;
81936;SDS011;71432;56.558;9.036;2023-11-21T01:09:41;2.00;;;0.95;;
81936;SDS011;71432;56.558;9.036;2023-11-21T01:12:06;1.60;;;0.50;;
81936;SDS011;71432;56.558;9.036;2023-11-21T01:14:32;1.20;;;0.77;;
81936;SDS011;71432;56.558;9.036;2023-11-21T01:16:57;1.13;;;0.50;;
81936;SDS011;71432;56.558;9.036;2023-11-21T01:19:22;2.85;;;0.90;;
81936;SDS011;71432;56.558;9.036;2023-11-21T01:21:48;1.35;;;0.68;;
81936;SDS011;71432;56.558;9.036;2023-11-21T01:24:13;1.63;;;1.00;;
81936;SDS011;71432;56.558;9.036;2023-11-21T01:26:39;1.70;;;0.90;;
81936;SDS011;71432;56.558;9.036;2023-11-21T01:29:04;4.07;;;1.00;;
81936;SDS011;71432;56.558;9.036;2023-11-21T01:31:30;1.27;;;0.80;;
81936;SDS011;71432;56.558;9.036;2023-11-21T01:33:56;1.98;;;1.00;;
81936;SDS011;71432;56.558;9.036;2023-11-21T01:36:21;1.85;;;1.00;;
81936;SDS011;71432;56.558;9.036;2023-11-21T01:38:47;1.45;;;0.80;;
81936;SDS011;71432;56.558;9.036;2023-11-21T01:41:15;1.50;;;1.00;;
81936;SDS011;71432;56.558;9.036;2023-11-21T01:43:40;2.50;;;0.90;;
81936;SDS011;71432;56.558;9.036;2023-11-21T01:46:06;1.70;;;1.00;;
81936;SDS011;71432;56.558;9.036;2023-11-21T01:48:33;3.28;;;1.20;;
81936;SDS011;71432;56.558;9.036;2023-11-21T01:50:58;1.33;;;0.80;;
81936;SDS011;71432;56.558;9.036;2023-11-21T01:53:24;1.80;;;0.85;;
81936;SDS011;71432;56.558;9.036;2023-11-21T01:55:51;1.77;;;0.98;;
81936;SDS011;71432;56.558;9.036;2023-11-21T01:58:16;1.50;;;0.73;;
81936;SDS011;71432;56.558;9.036;2023-11-21T02:00:42;1.83;;;0.65;;
81936;SDS011;71432;56.558;9.036;2023-11-21T02:03:08;1.95;;;1.00;;
81936;SDS011;71432;56.558;9.036;2023-11-21T02:05:35;2.38;;;0.88;;
81936;SDS011;71432;56.558;9.036;2023-11-21T02:08:01;2.50;;;1.00;;
81936;SDS011;71432;56.558;9.036;2023-11-21T02:10:27;2.25;;;1.08;;
81936;SDS011;71432;56.558;9.036;2023-11-21T02:12:54;1.58;;;0.60;;
81936;SDS011;71432;56.558;9.036;2023-11-21T02:15:21;1.55;;;0.70;;
81936;SDS011;71432;56.558;9.036;2023-11-21T02:17:48;1.63;;;1.05;;
81936;SDS011;71432;56.558;9.036;2023-11-21T02:20:17;2.58;;;0.90;;
81936;SDS011;71432;56.558;9.036;2023-11-21T02:25:22;1.35;;;0.70;;
81936;SDS011;71432;56.558;9.036;2023-11-21T02:30:14;1.63;;;0.73;;
81936;SDS011;71432;56.558;9.036;2023-11-21T02:32:41;1.15;;;0.65;;
81936;SDS011;71432;56.558;9.036;2023-11-21T02:35:07;1.23;;;0.68;;
81936;SDS011;71432;56.558;9.036;2023-11-21T02:37:33;1.60;;;0.63;;
81936;SDS011;71432;56.558;9.036;2023-11-21T02:39:59;3.92;;;1.00;;
81936;SDS011;71432;56.558;9.036;2023-11-21T02:42:24;2.80;;;0.70;;
81936;SDS011;71432;56.558;9.036;2023-11-21T02:44:49;1.48;;;0.93;;
81936;SDS011;71432;56.558;9.036;2023-11-21T02:47:15;3.63;;;1.03;;
81936;SDS011;71432;56.558;9.036;2023-11-21T02:49:40;1.30;;;0.73;;
81936;SDS011;71432;56.558;9.036;2023-11-21T02:52:05;2.57;;;1.03;;
81936;SDS011;71432;56.558;9.036;2023-11-21T02:54:31;2.20;;;0.82;;
81936;SDS011;71432;56.558;9.036;2023-11-21T02:57:01;1.85;;;0.93;;
81936;SDS011;71432;56.558;9.036;2023-11-21T02:59:27;1.35;;;0.80;;
81936;SDS011;71432;56.558;9.036;2023-11-21T03:01:52;2.95;;;0.90;;
81936;SDS011;71432;56.558;9.036;2023-11-21T03:04:18;2.30;;;1.20;;
81936;SDS011;71432;56.558;9.036;2023-11-21T03:06:44;1.92;;;0.80;;
81936;SDS011;71432;56.558;9.036;2023-11-21T03:09:10;2.25;;;1.05;;
81936;SDS011;71432;56.558;9.036;2023-11-21T03:11:37;1.40;;;0.77;;
81936;SDS011;71432;56.558;9.036;2023-11-21T03:14:03;1.50;;;0.60;;
81936;SDS011;71432;56.558;9.036;2023-11-21T03:16:28;2.28;;;0.90;;
81936;SDS011;71432;56.558;9.036;2023-11-21T03:18:54;1.95;;;0.75;;
81936;SDS011;71432;56.558;9.036;2023-11-21T03:21:19;1.95;;;1.00;;
81936;SDS011;71432;56.558;9.036;2023-11-21T03:23:44;1.17;;;0.73;;
81936;SDS011;71432;56.558;9.036;2023-11-21T03:26:13;1.17;;;0.70;;
81936;SDS011;71432;56.558;9.036;2023-11-21T03:28:38;2.17;;;1.02;;
81936;SDS011;71432;56.558;9.036;2023-11-21T03:31:04;2.50;;;0.80;;
81936;SDS011;71432;56.558;9.036;2023-11-21T03:33:31;1.25;;;0.70;;
81936;SDS011;71432;56.558;9.036;2023-11-21T03:35:57;1.60;;;0.80;;
81936;SDS011;71432;56.558;9.036;2023-11-21T03:38:22;1.70;;;0.73;;
81936;SDS011;71432;56.558;9.036;2023-11-21T03:40:48;1.20;;;0.47;;
81936;SDS011;71432;56.558;9.036;2023-11-21T03:43:15;1.95;;;0.82;;
81936;SDS011;71432;56.558;9.036;2023-11-21T03:45:41;1.53;;;0.80;;
81936;SDS011;71432;56.558;9.036;2023-11-21T03:48:06;1.10;;;0.73;;
81936;SDS011;71432;56.558;9.036;2023-11-21T03:50:32;1.15;;;0.70;;
81936;SDS011;71432;56.558;9.036;2023-11-21T03:52:57;2.13;;;0.82;;
81936;SDS011;71432;56.558;9.036;2023-11-21T03:55:22;2.20;;;0.90;;
81936;SDS011;71432;56.558;9.036;2023-11-21T03:57:51;1.58;;;0.80;;
81936;SDS011;71432;56.558;9.036;2023-11-21T04:00:16;1.33;;;0.70;;
81936;SDS011;71432;56.558;9.036;2023-11-21T04:02:42;1.38;;;0.80;;
81936;SDS011;71432;56.558;9.036;2023-11-21T04:05:08;1.27;;;0.77;;
81936;SDS011;71432;56.558;9.036;2023-11-21T04:07:34;1.88;;;0.82;;
81936;SDS011;71432;56.558;9.036;2023-11-21T04:10:00;1.40;;;0.70;;
81936;SDS011;71432;56.558;9.036;2023-11-21T04:12:25;1.00;;;0.50;;
81936;SDS011;71432;56.558;9.036;2023-11-21T04:14:51;1.10;;;0.65;;
81936;SDS011;71432;56.558;9.036;2023-11-21T04:17:19;0.80;;;0.50;;
81936;SDS011;71432;56.558;9.036;2023-11-21T04:19:45;1.65;;;0.77;;
81936;SDS011;71432;56.558;9.036;2023-11-21T04:22:11;1.77;;;0.85;;
81936;SDS011;71432;56.558;9.036;2023-11-21T04:24:36;0.85;;;0.43;;
81936;SDS011;71432;56.558;9.036;2023-11-21T04:27:01;1.50;;;0.73;;
81936;SDS011;71432;56.558;9.036;2023-11-21T04:29:28;1.10;;;0.63;;
81936;SDS011;71432;56.558;9.036;2023-11-21T04:31:53;1.50;;;0.60;;
81936;SDS011;71432;56.558;9.036;2023-11-21T04:34:18;2.60;;;0.50;;
81936;SDS011;71432;56.558;9.036;2023-11-21T04:36:44;1.30;;;0.70;;
81936;SDS011;71432;56.558;9.036;2023-11-21T04:39:09;1.10;;;0.70;;
81936;SDS011;71432;56.558;9.036;2023-11-21T04:41:34;1.30;;;0.70;;
81936;SDS011;71432;56.558;9.036;2023-11-21T04:44:01;1.15;;;0.63;;
81936;SDS011;71432;56.558;9.036;2023-11-21T04:46:26;1.37;;;0.90;;
81936;SDS011;71432;56.558;9.036;2023-11-21T04:48:52;1.07;;;0.77;;
81936;SDS011;71432;56.558;9.036;2023-11-21T04:51:17;1.10;;;0.80;;
81936;SDS011;71432;56.558;9.036;2023-11-21T04:53:42;1.25;;;0.70;;
81936;SDS011;71432;56.558;9.036;2023-11-21T04:56:08;1.10;;;0.80;;
81936;SDS011;71432;56.558;9.036;2023-11-21T04:58:33;2.57;;;1.00;;
81936;SDS011;71432;56.558;9.036;2023-11-21T05:00:58;1.60;;;0.77;;
81936;SDS011;71432;56.558;9.036;2023-11-21T05:03:24;2.20;;;0.70;;
81936;SDS011;71432;56.558;9.036;2023-11-21T05:05:49;0.75;;;0.50;;
81936;SDS011;71432;56.558;9.036;2023-11-21T05:08:15;1.20;;;0.53;;
81936;SDS011;71432;56.558;9.036;2023-11-21T05:10:40;1.47;;;0.70;;
81936;SDS011;71432;56.558;9.036;2023-11-21T05:13:05;2.65;;;0.90;;
81936;SDS011;71432;56.558;9.036;2023-11-21T05:15:35;1.48;;;1.00;;
81936;SDS011;71432;56.558;9.036;2023-11-21T05:18:00;1.60;;;0.87;;
81936;SDS011;71432;56.558;9.036;2023-11-21T05:20:26;1.05;;;0.60;;
81936;SDS011;71432;56.558;9.036;2023-11-21T05:22:51;1.65;;;0.70;;
81936;SDS011;71432;56.558;9.036;2023-11-21T05:25:17;4.07;;;0.60;;
81936;SDS011;71432;56.558;9.036;2023-11-21T05:27:45;1.30;;;0.80;;
81936;SDS011;71432;56.558;9.036;2023-11-21T05:32:38;0.93;;;0.50;;
81936;SDS011;71432;56.558;9.036;2023-11-21T05:35:04;2.00;;;0.80;;
81936;SDS011;71432;56.558;9.036;2023-11-21T05:37:34;1.38;;;0.80;;
81936;SDS011;71432;56.558;9.036;2023-11-21T05:40:00;0.80;;;0.77;;
81936;SDS011;71432;56.558;9.036;2023-11-21T05:42:30;4.80;;;0.93;;
81936;SDS011;71432;56.558;9.036;2023-11-21T05:44:56;2.30;;;0.70;;
81936;SDS011;71432;56.558;9.036;2023-11-21T05:47:24;2.15;;;0.80;;
81936;SDS011;71432;56.558;9.036;2023-11-21T05:49:51;1.50;;;0.70;;
81936;SDS011;71432;56.558;9.036;2023-11-21T05:52:17;1.38;;;0.63;;
81936;SDS011;71432;56.558;9.036;2023-11-21T05:54:42;1.08;;;0.70;;
81936;SDS011;71432;56.558;9.036;2023-11-21T05:57:08;1.73;;;1.05;;
81936;SDS011;71432;56.558;9.036;2023-11-21T05:59:34;2.00;;;0.75;;
81936;SDS011;71432;56.558;9.036;2023-11-21T06:01:59;2.03;;;0.65;;
81936;SDS011;71432;56.558;9.036;2023-11-21T06:04:24;5.43;;;0.82;;
81936;SDS011;71432;56.558;9.036;2023-11-21T06:06:51;2.00;;;0.88;;
81936;SDS011;71432;56.558;9.036;2023-11-21T06:09:17;3.63;;;1.15;;
81936;SDS011;71432;56.558;9.036;2023-11-21T06:11:43;2.63;;;1.00;;
81936;SDS011;71432;56.558;9.036;2023-11-21T06:14:08;5.90;;;0.88;;
81936;SDS011;71432;56.558;9.036;2023-11-21T06:16:34;3.90;;;1.20;;
81936;SDS011;71432;56.558;9.036;2023-11-21T06:19:00;3.85;;;0.90;;
81936;SDS011;71432;56.558;9.036;2023-11-21T06:21:26;8.57;;;1.08;;
81936;SDS011;71432;56.558;9.036;2023-11-21T06:23:51;2.58;;;0.80;;
81936;SDS011;71432;56.558;9.036;2023-11-21T06:26:18;5.30;;;2.00;;
81936;SDS011;71432;56.558;9.036;2023-11-21T06:28:43;3.38;;;1.02;;
81936;SDS011;71432;56.558;9.036;2023-11-21T06:31:09;6.63;;;1.67;;
81936;SDS011;71432;56.558;9.036;2023-11-21T06:33:35;4.82;;;2.05;;
81936;SDS011;71432;56.558;9.036;2023-11-21T06:36:02;16.10;;;4.10;;
81936;SDS011;71432;56.558;9.036;2023-11-21T06:40:54;20.75;;;6.22;;
81936;SDS011;71432;56.558;9.036;2023-11-21T06:43:21;17.63;;;5.05;;
81936;SDS011;71432;56.558;9.036;2023-11-21T06:45:47;16.25;;;5.38;;
81936;SDS011;71432;56.558;9.036;2023-11-21T06:48:12;17.02;;;5.57;;
81936;SDS011;71432;56.558;9.036;2023-11-21T06:50:38;11.68;;;5.05;;
81936;SDS011;71432;56.558;9.036;2023-11-21T06:53:03;14.85;;;5.07;;
81936;SDS011;71432;56.558;9.036;2023-11-21T06:55:31;13.50;;;4.93;;
81936;SDS011;71432;56.558;9.036;2023-11-21T06:57:57;16.17;;;4.68;;
81936;SDS011;71432;56.558;9.036;2023-11-21T07:00:23;16.00;;;5.10;;
81936;SDS011;71432;56.558;9.036;2023-11-21T07:02:48;12.35;;;4.95;;
81936;SDS011;71432;56.558;9.036;2023-11-21T07:05:14;12.00;;;4.45;;
81936;SDS011;71432;56.558;9.036;2023-11-21T07:07:40;14.27;;;4.55;;
81936;SDS011;71432;56.558;9.036;2023-11-21T07:10:05;11.65;;;4.15;;
81936;SDS011;71432;56.558;9.036;2023-11-21T07:12:31;10.70;;;3.88;;
81936;SDS011;71432;56.558;9.036;2023-11-21T07:14:57;10.60;;;3.83;;
81936;SDS011;71432;56.558;9.036;2023-11-21T07:19:49;12.70;;;3.80;;
81936;SDS011;71432;56.558;9.036;2023-11-21T07:22:15;13.63;;;4.05;;
81936;SDS011;71432;56.558;9.036;2023-11-21T07:24:46;9.35;;;3.60;;
81936;SDS011;71432;56.558;9.036;2023-11-21T07:27:13;11.95;;;3.22;;
81936;SDS011;71432;56.558;9.036;2023-11-21T07:29:38;10.52;;;3.50;;
81936;SDS011;71432;56.558;9.036;2023-11-21T07:32:04;9.77;;;3.47;;
81936;SDS011;71432;56.558;9.036;2023-11-21T07:34:30;8.32;;;4.43;;
81936;SDS011;71432;56.558;9.036;2023-11-21T07:36:55;8.67;;;2.83;;
81936;SDS011;71432;56.558;9.036;2023-11-21T07:39:21;8.88;;;2.67;;
81936;SDS011;71432;56.558;9.036;2023-11-21T07:41:46;6.40;;;3.53;;
81936;SDS011;71432;56.558;9.036;2023-11-21T07:44:13;9.75;;;3.42;;
81936;SDS011;71432;56.558;9.036;2023-11-21T07:46:40;7.60;;;4.43;;
81936;SDS011;71432;56.558;9.036;2023-11-21T07:49:06;8.45;;;3.30;;
81936;SDS011;71432;56.558;9.036;2023-11-21T07:51:31;9.47;;;2.97;;
81936;SDS011;71432;56.558;9.036;2023-11-21T07:53:56;7.07;;;2.97;;
81936;SDS011;71432;56.558;9.036;2023-11-21T07:56:21;13.90;;;3.60;;
81936;SDS011;71432;56.558;9.036;2023-11-21T07:58:47;13.80;;;5.35;;
81936;SDS011;71432;56.558;9.036;2023-11-21T08:01:12;14.87;;;6.10;;
81936;SDS011;71432;56.558;9.036;2023-11-21T08:03:38;13.90;;;5.30;;
81936;SDS011;71432;56.558;9.036;2023-11-21T08:06:03;15.83;;;6.70;;
81936;SDS011;71432;56.558;9.036;2023-11-21T08:08:30;18.92;;;5.35;;
81936;SDS011;71432;56.558;9.036;2023-11-21T08:10:57;19.23;;;5.97;;
81936;SDS011;71432;56.558;9.036;2023-11-21T08:13:23;14.77;;;4.88;;
81936;SDS011;71432;56.558;9.036;2023-11-21T08:15:49;17.10;;;5.57;;
81936;SDS011;71432;56.558;9.036;2023-11-21T08:18:14;13.90;;;5.20;;
81936;SDS011;71432;56.558;9.036;2023-11-21T08:20:41;17.70;;;5.20;;
81936;SDS011;71432;56.558;9.036;2023-11-21T08:23:06;18.88;;;4.72;;
81936;SDS011;71432;56.558;9.036;2023-11-21T08:25:32;18.33;;;5.50;;
81936;SDS011;71432;56.558;9.036;2023-11-21T08:27:59;14.65;;;4.43;;
81936;SDS011;71432;56.558;9.036;2023-11-21T08:30:25;13.13;;;4.40;;
81936;SDS011;71432;56.558;9.036;2023-11-21T08:32:50;18.05;;;5.00;;
81936;SDS011;71432;56.558;9.036;2023-11-21T08:35:17;12.70;;;4.13;;
81936;SDS011;71432;56.558;9.036;2023-11-21T08:37:42;15.65;;;5.10;;
81936;SDS011;71432;56.558;9.036;2023-11-21T08:40:08;12.80;;;4.53;;
81936;SDS011;71432;56.558;9.036;2023-11-21T08:42:34;12.43;;;4.38;;
81936;SDS011;71432;56.558;9.036;2023-11-21T08:45:00;14.20;;;4.22;;
81936;SDS011;71432;56.558;9.036;2023-11-21T08:47:26;15.77;;;4.80;;
81936;SDS011;71432;56.558;9.036;2023-11-21T08:49:51;9.70;;;3.70;;
81936;SDS011;71432;56.558;9.036;2023-11-21T08:52:21;15.07;;;5.05;;
81936;SDS011;71432;56.558;9.036;2023-11-21T08:54:48;9.15;;;3.60;;
81936;SDS011;71432;56.558;9.036;2023-11-21T08:57:13;18.50;;;5.03;;
81936;SDS011;71432;56.558;9.036;2023-11-21T08:59:39;16.40;;;4.28;;
81936;SDS011;71432;56.558;9.036;2023-11-21T09:02:04;10.27;;;3.73;;
81936;SDS011;71432;56.558;9.036;2023-11-21T09:04:30;14.70;;;3.83;;
81936;SDS011;71432;56.558;9.036;2023-11-21T09:06:55;11.40;;;3.83;;
81936;SDS011;71432;56.558;9.036;2023-11-21T09:09:20;11.43;;;3.70;;
81936;SDS011;71432;56.558;9.036;2023-11-21T09:11:46;10.65;;;3.42;;
81936;SDS011;71432;56.558;9.036;2023-11-21T09:14:14;11.93;;;3.47;;
81936;SDS011;71432;56.558;9.036;2023-11-21T09:16:41;11.52;;;3.22;;
81936;SDS011;71432;56.558;9.036;2023-11-21T09:19:06;9.48;;;3.67;;
81936;SDS011;71432;56.558;9.036;2023-11-21T09:21:31;10.02;;;3.00;;
81936;SDS011;71432;56.558;9.036;2023-11-21T09:23:57;12.20;;;3.53;;
81936;SDS011;71432;56.558;9.036;2023-11-21T09:26:23;8.63;;;3.13;;
81936;SDS011;71432;56.558;9.036;2023-11-21T09:28:48;8.70;;;3.57;;
81936;SDS011;71432;56.558;9.036;2023-11-21T09:31:13;13.33;;;3.03;;
81936;SDS011;71432;56.558;9.036;2023-11-21T09:33:41;11.40;;;3.92;;
81936;SDS011;71432;56.558;9.036;2023-11-21T09:36:11;9.35;;;2.63;;
81936;SDS011;71432;56.558;9.036;2023-11-21T09:38:38;14.02;;;4.45;;
81936;SDS011;71432;56.558;9.036;2023-11-21T09:41:04;10.23;;;3.28;;
81936;SDS011;71432;56.558;9.036;2023-11-21T09:46:03;7.47;;;2.80;;
81936;SDS011;71432;56.558;9.036;2023-11-21T09:48:35;9.02;;;3.17;;
81936;SDS011;71432;56.558;9.036;2023-11-21T09:51:02;9.63;;;2.80;;
81936;SDS011;71432;56.558;9.036;2023-11-21T09:53:28;7.38;;;3.05;;
81936;SDS011;71432;56.558;9.036;2023-11-21T09:55:57;9.45;;;4.18;;
81936;SDS011;71432;56.558;9.036;2023-11-21T09:58:22;14.20;;;3.72;;
81936;SDS011;71432;56.558;9.036;2023-11-21T10:00:51;10.15;;;2.70;;
81936;SDS011;71432;56.558;9.036;2023-11-21T10:03:18;7.30;;;3.25;;
81936;SDS011;71432;56.558;9.036;2023-11-21T10:05:44;8.07;;;2.20;;
81936;SDS011;71432;56.558;9.036;2023-11-21T10:08:15;7.72;;;3.25;;
81936;SDS011;71432;56.558;9.036;2023-11-21T10:10:44;9.13;;;2.97;;
81936;SDS011;71432;56.558;9.036;2023-11-21T10:13:11;10.43;;;2.72;;
81936;SDS011;71432;56.558;9.036;2023-11-21T10:15:37;6.55;;;2.33;;
81936;SDS011;71432;56.558;9.036;2023-11-21T10:18:03;7.68;;;2.88;;
81936;SDS011;71432;56.558;9.036;2023-11-21T10:20:31;6.68;;;2.30;;
81936;SDS011;71432;56.558;9.036;2023-11-21T10:22:58;6.95;;;2.60;;
81936;SDS011;71432;56.558;9.036;2023-11-21T10:25:24;3.83;;;2.25;;
81936;SDS011;71432;56.558;9.036;2023-11-21T10:27:50;6.60;;;2.58;;
81936;SDS011;71432;56.558;9.036;2023-11-21T10:30:23;5.68;;;2.40;;
81936;SDS011;71432;56.558;9.036;2023-11-21T10:32:58;6.18;;;2.05;;
81936;SDS011;71432;56.558;9.036;2023-11-21T10:35:24;8.45;;;1.92;;
81936;SDS011;71432;56.558;9.036;2023-11-21T10:37:50;6.05;;;2.05;;
81936;SDS011;71432;56.558;9.036;2023-11-21T10:40:27;7.70;;;2.92;;
81936;SDS011;71432;56.558;9.036;2023-11-21T10:42:52;5.82;;;1.90;;
81936;SDS011;71432;56.558;9.036;2023-11-21T10:45:18;4.75;;;1.90;;
81936;SDS011;71432;56.558;9.036;2023-11-21T10:47:43;4.65;;;2.03;;
81936;SDS011;71432;56.558;9.036;2023-11-21T10:50:09;5.40;;;2.25;;
81936;SDS011;71432;56.558;9.036;2023-11-21T10:52:45;7.95;;;2.78;;
81936;SDS011;71432;56.558;9.036;2023-11-21T10:55:21;4.80;;;2.00;;
81936;SDS011;71432;56.558;9.036;2023-11-21T10:57:49;7.93;;;2.22;;
81936;SDS011;71432;56.558;9.036;2023-11-21T11:00:18;8.48;;;2.55;;
81936;SDS011;71432;56.558;9.036;2023-11-21T11:02:46;3.97;;;1.95;;
81936;SDS011;71432;56.558;9.036;2023-11-21T11:05:18;5.28;;;2.25;;
81936;SDS011;71432;56.558;9.036;2023-11-21T11:07:45;5.95;;;2.28;;
81936;SDS011;71432;56.558;9.036;2023-11-21T11:10:19;7.82;;;2.47;;
81936;SDS011;71432;56.558;9.036;2023-11-21T11:12:47;8.05;;;2.20;;
81936;SDS011;71432;56.558;9.036;2023-11-21T11:15:13;5.22;;;2.38;;
81936;SDS011;71432;56.558;9.036;2023-11-21T11:17:41;5.07;;;2.03;;
81936;SDS011;71432;56.558;9.036;2023-11-21T11:20:07;5.05;;;3.15;;
81936;SDS011;71432;56.558;9.036;2023-11-21T11:25:27;6.28;;;2.08;;
81936;SDS011;71432;56.558;9.036;2023-11-21T11:28:08;5.95;;;2.15;;
81936;SDS011;71432;56.558;9.036;2023-11-21T11:33:43;6.53;;;1.80;;
81936;SDS011;71432;56.558;9.036;2023-11-21T11:36:26;6.63;;;2.20;;
81936;SDS011;71432;56.558;9.036;2023-11-21T11:38:58;4.20;;;1.90;;
81936;SDS011;71432;56.558;9.036;2023-11-21T11:41:24;4.00;;;1.60;;
81936;SDS011;71432;56.558;9.036;2023-11-21T11:43:55;6.28;;;2.30;;
81936;SDS011;71432;56.558;9.036;2023-11-21T11:46:21;3.72;;;1.95;;
81936;SDS011;71432;56.558;9.036;2023-11-21T11:49:11;2.72;;;1.52;;
81936;SDS011;71432;56.558;9.036;2023-11-21T11:51:57;8.30;;;2.10;;
81936;SDS011;71432;56.558;9.036;2023-11-21T11:54:54;4.50;;;1.95;;
81936;SDS011;71432;56.558;9.036;2023-11-21T11:57:23;3.60;;;1.50;;
81936;SDS011;71432;56.558;9.036;2023-11-21T12:02:48;6.03;;;1.77;;
81936;SDS011;71432;56.558;9.036;2023-11-21T12:05:16;7.50;;;2.47;;
81936;SDS011;71432;56.558;9.036;2023-11-21T12:07:52;4.45;;;2.20;;
81936;SDS011;71432;56.558;9.036;2023-11-21T12:12:52;4.97;;;2.53;;
81936;SDS011;71432;56.558;9.036;2023-11-21T12:15:19;4.90;;;1.90;;
81936;SDS011;71432;56.558;9.036;2023-11-21T12:17:45;5.70;;;2.10;;
81936;SDS011;71432;56.558;9.036;2023-11-21T12:20:14;5.53;;;1.77;;
81936;SDS011;71432;56.558;9.036;2023-11-21T12:22:44;4.20;;;1.73;;
81936;SDS011;71432;56.558;9.036;2023-11-21T12:25:18;3.42;;;1.70;;
81936;SDS011;71432;56.558;9.036;2023-11-21T12:27:44;4.20;;;1.70;;
81936;SDS011;71432;56.558;9.036;2023-11-21T12:30:15;3.83;;;1.60;;
81936;SDS011;71432;56.558;9.036;2023-11-21T12:32:47;7.40;;;1.55;;
81936;SDS011;71432;56.558;9.036;2023-11-21T12:35:17;3.22;;;1.58;;
81936;SDS011;71432;56.558;9.036;2023-11-21T12:37:44;4.95;;;1.60;;
81936;SDS011;71432;56.558;9.036;2023-11-21T12:40:10;4.22;;;1.77;;
81936;SDS011;71432;56.558;9.036;2023-11-21T12:42:40;6.32;;;1.73;;
81936;SDS011;71432;56.558;9.036;2023-11-21T12:45:49;5.57;;;1.95;;
81936;SDS011;71432;56.558;9.036;2023-11-21T12:47:59;4.80;;;1.85;;
81936;SDS011;71432;56.558;9.036;2023-11-21T12:50:28;5.45;;;1.85;;
81936;SDS011;71432;56.558;9.036;2023-11-21T12:53:10;4.78;;;2.30;;
81936;SDS011;71432;56.558;9.036;2023-11-21T12:55:43;3.90;;;1.65;;
81936;SDS011;71432;56.558;9.036;2023-11-21T12:58:15;8.07;;;1.80;;
81936;SDS011;71432;56.558;9.036;2023-11-21T13:00:44;5.57;;;1.77;;
81936;SDS011;71432;56.558;9.036;2023-11-21T13:03:11;5.32;;;1.70;;
81936;SDS011;71432;56.558;9.036;2023-11-21T13:05:41;5.57;;;1.83;;
81936;SDS011;71432;56.558;9.036;2023-11-21T13:08:09;4.22;;;1.65;;
81936;SDS011;71432;56.558;9.036;2023-11-21T13:10:38;3.65;;;1.63;;
81936;SDS011;71432;56.558;9.036;2023-11-21T13:13:05;5.10;;;1.63;;
81936;SDS011;71432;56.558;9.036;2023-11-21T13:15:33;2.63;;;1.48;;
81936;SDS011;71432;56.558;9.036;2023-11-21T13:18:01;6.20;;;1.83;;
81936;SDS011;71432;56.558;9.036;2023-11-21T13:20:27;6.55;;;1.85;;
81936;SDS011;71432;56.558;9.036;2023-11-21T13:22:55;4.05;;;2.15;;
81936;SDS011;71432;56.558;9.036;2023-11-21T13:25:28;4.50;;;1.40;;
81936;SDS011;71432;56.558;9.036;2023-11-21T13:30:24;5.22;;;1.73;;
81936;SDS011;71432;56.558;9.036;2023-11-21T13:32:58;4.28;;;1.50;;
81936;SDS011;71432;56.558;9.036;2023-11-21T13:35:27;4.35;;;1.45;;
81936;SDS011;71432;56.558;9.036;2023-11-21T13:38:06;4.25;;;1.48;;
81936;SDS011;71432;56.558;9.036;2023-11-21T13:40:34;3.28;;;1.20;;
81936;SDS011;71432;56.558;9.036;2023-11-21T13:43:08;3.75;;;1.15;;
81936;SDS011;71432;56.558;9.036;2023-11-21T13:45:44;3.55;;;1.88;;
81936;SDS011;71432;56.558;9.036;2023-11-21T13:48:11;2.88;;;1.10;;
81936;SDS011;71432;56.558;9.036;2023-11-21T13:50:39;3.08;;;1.70;;
81936;SDS011;71432;56.558;9.036;2023-11-21T13:53:09;3.30;;;1.40;;
81936;SDS011;71432;56.558;9.036;2023-11-21T13:55:48;6.15;;;1.67;;
81936;SDS011;71432;56.558;9.036;2023-11-21T13:58:14;2.42;;;1.33;;
81936;SDS011;71432;56.558;9.036;2023-11-21T14:00:44;5.20;;;1.52;;
81936;SDS011;71432;56.558;9.036;2023-11-21T14:03:11;2.92;;;1.40;;
81936;SDS011;71432;56.558;9.036;2023-11-21T14:05:45;4.20;;;1.60;;
81936;SDS011;71432;56.558;9.036;2023-11-21T14:08:22;2.25;;;1.10;;
81936;SDS011;71432;56.558;9.036;2023-11-21T14:10:53;3.53;;;1.38;;
81936;SDS011;71432;56.558;9.036;2023-11-21T14:13:22;3.28;;;1.45;;
81936;SDS011;71432;56.558;9.036;2023-11-21T14:15:51;4.90;;;2.00;;
81936;SDS011;71432;56.558;9.036;2023-11-21T14:18:22;5.60;;;1.40;;
81936;SDS011;71432;56.558;9.036;2023-11-21T14:20:56;2.95;;;0.95;;
81936;SDS011;71432;56.558;9.036;2023-11-21T14:23:22;3.35;;;1.42;;
81936;SDS011;71432;56.558;9.036;2023-11-21T14:25:48;3.03;;;1.27;;
81936;SDS011;71432;56.558;9.036;2023-11-21T14:28:14;3.33;;;1.40;;
81936;SDS011;71432;56.558;9.036;2023-11-21T14:30:40;3.35;;;1.42;;
81936;SDS011;71432;56.558;9.036;2023-11-21T14:33:07;3.95;;;1.58;;
81936;SDS011;71432;56.558;9.036;2023-11-21T14:35:33;4.03;;;1.15;;
81936;SDS011;71432;56.558;9.036;2023-11-21T14:37:59;4.40;;;1.52;;
81936;SDS011;71432;56.558;9.036;2023-11-21T14:40:25;3.33;;;1.00;;
81936;SDS011;71432;56.558;9.036;2023-11-21T14:42:56;2.25;;;1.23;;
81936;SDS011;71432;56.558;9.036;2023-11-21T14:45:22;3.13;;;1.38;;
81936;SDS011;71432;56.558;9.036;2023-11-21T14:47:51;2.58;;;0.88;;
81936;SDS011;71432;56.558;9.036;2023-11-21T14:50:30;3.25;;;1.77;;
81936;SDS011;71432;56.558;9.036;2023-11-21T14:53:05;3.90;;;1.42;;
81936;SDS011;71432;56.558;9.036;2023-11-21T14:55:34;3.78;;;1.10;;
81936;SDS011;71432;56.558;9.036;2023-11-21T14:58:12;3.17;;;1.05;;
81936;SDS011;71432;56.558;9.036;2023-11-21T15:00:40;3.22;;;1.50;;
81936;SDS011;71432;56.558;9.036;2023-11-21T15:03:09;2.60;;;1.05;;
81936;SDS011;71432;56.558;9.036;2023-11-21T15:05:43;3.45;;;1.00;;
81936;SDS011;71432;56.558;9.036;2023-11-21T15:08:08;6.88;;;1.52;;
81936;SDS011;71432;56.558;9.036;2023-11-21T15:10:45;2.40;;;1.02;;
81936;SDS011;71432;56.558;9.036;2023-11-21T15:13:13;3.65;;;1.35;;
81936;SDS011;71432;56.558;9.036;2023-11-21T15:15:40;6.50;;;1.40;;
81936;SDS011;71432;56.558;9.036;2023-11-21T15:20:32;3.03;;;1.30;;
81936;SDS011;71432;56.558;9.036;2023-11-21T15:22:57;3.40;;;1.45;;